Weather at Singapore Changi Airport

Public forecast

Using degrees Celsius for public forecast. Weather courtesy of forecast.io.

Current aviation weather report (METAR) for Singapore Changi Airport

Retrieved 2020/11/28 18:30 UTC (18 minutes ago):

WSSS 281830Z VRB02KT 9999 FEW018 BKN140 26/24 Q1010 NOSIG

Aviation forecast (TAF) for Singapore Changi Airport

Retrieved 2020/11/28 18:09 UTC (39 minutes ago):

TAF WSSS 281700Z 2818/3000 31006KT 9999 FEW015 SCT020